Time;durP1;ratioP1;P1;durP2;ratioP2;P2;SDS_P1;SDS_P2;PMS_P1;PMS_P2;Temp;Humidity;BMP_temperature;BMP_pressure;BME280_temperature;BME280_humidity;BME280_pressure;Samples;Min_cycle;Max_cycle;Signal;HPM_P1;HPM_P2
2022/03/31 00:00:19;;;;;;;;;;;17.00;99.90;;;;;;6245543;23;19919;-72
2022/03/31 00:02:45;;;;;;;;;;;16.90;99.90;;;;;;6246020;23;19935;-71
2022/03/31 00:05:11;;;;;;;;;;;17.00;99.90;;;;;;6245428;23;19959;-70
2022/03/31 00:07:47;;;;;;;;;;;17.00;99.90;;;;;;6245835;23;19927;-71
2022/03/31 00:10:13;;;;;;;;;;;16.90;99.90;;;;;;6245543;23;19904;-72
2022/03/31 00:12:39;;;;;;;;;;;16.90;99.90;;;;;;6244819;23;19904;-70
2022/03/31 00:15:05;;;;;;;;;;;17.00;99.90;;;;;;6245630;23;20174;-71
2022/03/31 00:17:31;;;;;;;;;;;17.00;99.90;;;;;;6245285;23;20367;-72
2022/03/31 00:19:56;;;;;;;;;;;16.90;99.90;;;;;;6246094;23;19946;-72
2022/03/31 00:22:23;;;;;;;;;;;16.90;99.90;;;;;;6245708;23;19903;-72
2022/03/31 00:24:48;;;;;;;;;;;16.90;99.90;;;;;;6218239;23;20045;-72
2022/03/31 00:27:14;;;;;;;;;;;17.10;99.90;;;;;;6245490;23;20301;-72
2022/03/31 00:29:40;;;;;;;;;;;17.20;99.90;;;;;;6245849;23;19904;-72
2022/03/31 00:32:06;;;;;;;;;;;17.30;99.90;;;;;;6245294;23;20201;-71
2022/03/31 00:34:32;;;;;;;;;;;17.50;99.90;;;;;;6245382;23;19903;-71
2022/03/31 00:36:57;;;;;;;;;;;17.50;99.90;;;;;;6245393;23;19950;-72
2022/03/31 00:39:31;;;;;;;;;;;17.50;99.90;;;;;;6245237;23;19923;-71
2022/03/31 00:42:02;;;;;;;;;;;17.60;99.90;;;;;;6245084;23;20317;-72
2022/03/31 00:44:28;;;;;;;;;;;17.60;99.90;;;;;;6245427;23;19903;-71
2022/03/31 00:46:55;;;;;;;;;;;17.60;99.90;;;;;;6245720;23;20305;-71
2022/03/31 00:49:21;;;;;;;;;;;17.50;99.90;;;;;;6245052;23;19904;-73
2022/03/31 00:51:48;;;;;;;;;;;17.50;99.90;;;;;;6245631;23;19908;-72
2022/03/31 00:54:15;;;;;;;;;;;17.50;99.90;;;;;;6244932;23;19933;-73
2022/03/31 00:56:41;;;;;;;;;;;17.40;99.90;;;;;;6245505;23;20319;-71
2022/03/31 00:59:08;;;;;;;;;;;17.30;99.90;;;;;;6245165;23;19930;-72
2022/03/31 01:01:35;;;;;;;;;;;17.30;99.90;;;;;;6245168;23;19908;-70
2022/03/31 01:04:01;;;;;;;;;;;17.40;99.90;;;;;;6244387;23;19903;-72
2022/03/31 01:06:26;;;;;;;;;;;17.40;99.90;;;;;;6245182;23;19923;-70
2022/03/31 01:08:52;;;;;;;;;;;17.50;99.90;;;;;;6217815;23;19998;-72
2022/03/31 01:11:19;;;;;;;;;;;17.60;99.90;;;;;;6245251;23;19904;-70
2022/03/31 01:13:45;;;;;;;;;;;17.50;99.90;;;;;;6217711;23;20183;-72
2022/03/31 01:16:10;;;;;;;;;;;17.40;99.90;;;;;;6245150;23;20285;-71
2022/03/31 01:18:36;;;;;;;;;;;17.10;99.90;;;;;;6244645;23;19916;-70
2022/03/31 01:21:02;;;;;;;;;;;16.90;99.90;;;;;;6244852;23;19912;-71
2022/03/31 01:23:28;;;;;;;;;;;16.70;99.90;;;;;;6245168;23;20312;-71
2022/03/31 01:25:54;;;;;;;;;;;16.60;99.90;;;;;;6245230;23;19903;-70
2022/03/31 01:28:22;;;;;;;;;;;16.50;99.90;;;;;;6245547;23;19926;-70
2022/03/31 01:30:49;;;;;;;;;;;16.50;99.90;;;;;;6245053;23;19903;-71
2022/03/31 01:33:16;;;;;;;;;;;16.50;99.90;;;;;;6244861;23;19903;-71
2022/03/31 01:35:43;;;;;;;;;;;16.40;99.90;;;;;;6244205;23;19904;-71
2022/03/31 01:38:08;;;;;;;;;;;16.40;99.90;;;;;;6217730;23;20304;-70
2022/03/31 01:40:35;;;;;;;;;;;16.30;99.90;;;;;;6244984;23;19912;-71
2022/03/31 01:43:02;;;;;;;;;;;16.30;99.90;;;;;;6244424;23;20178;-72
2022/03/31 01:45:28;;;;;;;;;;;16.30;99.90;;;;;;6244397;23;19963;-70
2022/03/31 01:47:54;;;;;;;;;;;16.20;99.90;;;;;;6244653;23;19904;-71
2022/03/31 01:50:20;;;;;;;;;;;16.30;99.90;;;;;;6244984;23;20050;-70
2022/03/31 01:52:46;;;;;;;;;;;16.30;99.90;;;;;;6217423;23;19939;-70
2022/03/31 01:55:11;;;;;;;;;;;16.30;99.90;;;;;;6243493;23;20232;-71
2022/03/31 01:57:38;;;;;;;;;;;16.20;99.90;;;;;;6243579;23;20209;-70
2022/03/31 02:00:05;;;;;;;;;;;16.30;99.90;;;;;;6243088;23;19911;-70
2022/03/31 02:02:30;;;;;;;;;;;16.30;99.90;;;;;;6244045;23;19904;-72
2022/03/31 02:04:57;;;;;;;;;;;16.20;99.90;;;;;;6244155;23;20289;-72
2022/03/31 02:07:23;;;;;;;;;;;16.20;99.90;;;;;;6244214;23;19918;-66
2022/03/31 02:09:49;;;;;;;;;;;16.20;99.90;;;;;;6244284;23;19968;-70
2022/03/31 02:12:15;;;;;;;;;;;16.10;99.90;;;;;;6244618;23;19904;-71
2022/03/31 02:14:41;;;;;;;;;;;16.10;99.90;;;;;;6244305;23;19904;-70
2022/03/31 02:17:08;;;;;;;;;;;16.10;99.90;;;;;;6243910;23;20234;-72
2022/03/31 02:19:35;;;;;;;;;;;16.10;99.90;;;;;;6244174;23;19931;-70
2022/03/31 02:22:01;;;;;;;;;;;16.10;99.90;;;;;;6244393;23;19982;-71
2022/03/31 02:24:27;;;;;;;;;;;16.00;99.90;;;;;;6243928;23;20247;-71
2022/03/31 02:26:54;;;;;;;;;;;16.00;99.90;;;;;;6243815;23;20345;-70
2022/03/31 02:29:19;;;;;;;;;;;16.10;99.90;;;;;;6243991;23;20280;-71
2022/03/31 02:31:48;;;;;;;;;;;16.00;99.90;;;;;;6244137;23;20304;-72
2022/03/31 02:34:14;;;;;;;;;;;16.00;99.90;;;;;;6244142;23;19910;-72
2022/03/31 02:36:41;;;;;;;;;;;16.00;99.90;;;;;;6244522;23;20331;-71
2022/03/31 02:39:07;;;;;;;;;;;15.90;99.90;;;;;;6243504;23;19919;-72
2022/03/31 02:41:33;;;;;;;;;;;15.90;99.90;;;;;;6243175;23;19928;-72
2022/03/31 02:43:59;;;;;;;;;;;15.90;99.90;;;;;;6243058;23;19910;-71
2022/03/31 02:46:27;;;;;;;;;;;15.90;99.90;;;;;;6244106;23;19904;-71
2022/03/31 02:48:54;;;;;;;;;;;15.90;99.90;;;;;;6243897;23;20174;-72
2022/03/31 02:51:21;;;;;;;;;;;15.90;99.90;;;;;;6243988;23;19986;-71
2022/03/31 02:56:31;;;;;;;;;;;15.90;99.90;;;;;;6243541;23;19914;-72
2022/03/31 02:58:57;;;;;;;;;;;16.10;99.90;;;;;;6243311;23;19903;-71
2022/03/31 03:01:23;;;;;;;;;;;16.20;99.90;;;;;;6243412;23;19994;-72
2022/03/31 03:03:51;;;;;;;;;;;16.10;99.90;;;;;;6243700;23;19983;-72
2022/03/31 03:06:17;;;;;;;;;;;16.10;99.90;;;;;;6216881;23;19983;-72
2022/03/31 03:08:46;;;;;;;;;;;16.10;99.90;;;;;;6244623;23;19961;-73
2022/03/31 03:11:12;;;;;;;;;;;16.00;99.90;;;;;;6244925;23;19903;-72
2022/03/31 03:13:38;;;;;;;;;;;15.90;99.90;;;;;;6244337;23;19911;-71
2022/03/31 03:16:08;;;;;;;;;;;15.90;99.90;;;;;;6245037;23;19949;-71
2022/03/31 03:18:34;;;;;;;;;;;15.90;99.90;;;;;;6244251;23;19916;-71
2022/03/31 03:21:00;;;;;;;;;;;15.80;99.90;;;;;;6245069;23;19965;-72
2022/03/31 03:23:26;;;;;;;;;;;15.80;99.90;;;;;;6245076;23;19972;-71
2022/03/31 03:25:52;;;;;;;;;;;15.80;99.90;;;;;;6218700;23;20324;-71
2022/03/31 03:28:18;;;;;;;;;;;15.70;99.90;;;;;;6248186;23;19986;-70
2022/03/31 03:30:45;;;;;;;;;;;15.60;99.90;;;;;;6248443;23;19985;-70
2022/03/31 03:33:15;;;;;;;;;;;15.50;99.90;;;;;;6249069;23;19908;-71
2022/03/31 03:35:41;;;;;;;;;;;15.50;99.90;;;;;;6248626;23;19904;-72
2022/03/31 03:38:07;;;;;;;;;;;15.50;99.90;;;;;;6248562;23;19946;-70
2022/03/31 03:40:33;;;;;;;;;;;15.50;99.90;;;;;;6248682;23;19912;-71
2022/03/31 03:42:59;;;;;;;;;;;15.60;99.90;;;;;;6248562;23;19915;-71
2022/03/31 03:45:25;;;;;;;;;;;15.60;99.90;;;;;;6248844;23;20262;-72
2022/03/31 03:47:51;;;;;;;;;;;15.50;99.90;;;;;;6248564;23;19910;-71
2022/03/31 03:50:18;;;;;;;;;;;15.50;99.90;;;;;;6248423;23;19910;-73
2022/03/31 03:52:44;;;;;;;;;;;15.60;99.90;;;;;;6248317;23;19912;-69
2022/03/31 03:55:10;;;;;;;;;;;15.60;99.90;;;;;;6248514;23;19903;-72
2022/03/31 03:57:37;;;;;;;;;;;15.60;99.90;;;;;;6248917;23;19953;-71
2022/03/31 04:00:03;;;;;;;;;;;15.60;99.90;;;;;;6248447;23;19919;-74
2022/03/31 04:02:29;;;;;;;;;;;15.60;99.90;;;;;;6248898;23;19907;-71
2022/03/31 04:04:55;;;;;;;;;;;15.70;99.90;;;;;;6248626;23;19912;-71
2022/03/31 04:07:21;;;;;;;;;;;15.60;99.90;;;;;;6248370;23;19907;-73
2022/03/31 04:09:47;;;;;;;;;;;15.40;99.90;;;;;;6248382;23;19938;-71
2022/03/31 04:12:13;;;;;;;;;;;15.40;99.90;;;;;;6248299;23;19910;-71
2022/03/31 04:14:39;;;;;;;;;;;15.50;99.90;;;;;;6248401;23;19983;-73
2022/03/31 04:17:05;;;;;;;;;;;15.50;99.90;;;;;;6221021;23;20321;-72
2022/03/31 04:19:31;;;;;;;;;;;15.50;99.90;;;;;;6249282;23;19919;-72
2022/03/31 04:21:57;;;;;;;;;;;15.60;99.90;;;;;;6248824;23;19910;-71
2022/03/31 04:24:23;;;;;;;;;;;15.50;99.90;;;;;;6249836;23;19931;-72
2022/03/31 04:26:49;;;;;;;;;;;15.50;99.90;;;;;;6249606;23;19910;-72
2022/03/31 04:29:16;;;;;;;;;;;15.40;99.90;;;;;;6249276;23;19984;-72
2022/03/31 04:31:45;;;;;;;;;;;15.30;99.90;;;;;;6222700;23;20316;-71
2022/03/31 04:34:11;;;;;;;;;;;15.30;99.90;;;;;;6249211;23;20222;-72
2022/03/31 04:36:37;;;;;;;;;;;15.40;99.90;;;;;;6249530;23;20238;-72
2022/03/31 04:39:03;;;;;;;;;;;15.40;99.90;;;;;;6248605;23;19904;-72
2022/03/31 04:41:29;;;;;;;;;;;15.40;99.90;;;;;;6247571;23;20284;-72
2022/03/31 04:43:55;;;;;;;;;;;15.40;99.90;;;;;;6248149;23;20261;-73
2022/03/31 04:46:20;;;;;;;;;;;15.30;99.90;;;;;;6220576;23;19946;-72
2022/03/31 04:48:55;;;;;;;;;;;15.40;99.90;;;;;;6248156;23;19990;-72
2022/03/31 04:51:21;;;;;;;;;;;15.40;99.90;;;;;;6246997;23;19908;-72
2022/03/31 04:53:47;;;;;;;;;;;15.40;99.90;;;;;;6246561;23;19985;-72
2022/03/31 04:56:14;;;;;;;;;;;15.40;99.90;;;;;;6246772;23;19915;-72
2022/03/31 04:58:40;;;;;;;;;;;15.50;99.90;;;;;;6247544;23;19904;-71
2022/03/31 05:01:06;;;;;;;;;;;15.40;99.90;;;;;;6247731;23;19985;-71
2022/03/31 05:03:32;;;;;;;;;;;15.40;99.90;;;;;;6246852;23;19904;-71
2022/03/31 05:05:58;;;;;;;;;;;15.40;99.90;;;;;;6246020;23;19969;-72
2022/03/31 05:08:23;;;;;;;;;;;15.40;99.90;;;;;;6246109;23;19904;-72
2022/03/31 05:10:50;;;;;;;;;;;15.40;99.90;;;;;;6246323;23;19903;-73
2022/03/31 05:13:18;;;;;;;;;;;15.30;99.90;;;;;;6246288;23;19941;-73
2022/03/31 05:15:44;;;;;;;;;;;15.30;99.90;;;;;;6220066;23;19922;-74
2022/03/31 05:18:09;;;;;;;;;;;15.30;99.90;;;;;;6246917;23;19917;-70
2022/03/31 05:20:35;;;;;;;;;;;15.20;99.90;;;;;;6247071;23;20378;-73
2022/03/31 05:23:01;;;;;;;;;;;15.20;99.90;;;;;;6219468;23;19991;-73
2022/03/31 05:25:27;;;;;;;;;;;15.30;99.90;;;;;;6247171;23;19950;-72
2022/03/31 05:27:53;;;;;;;;;;;15.30;99.90;;;;;;6246611;23;19904;-72
2022/03/31 05:30:19;;;;;;;;;;;15.30;99.90;;;;;;6246518;23;19904;-71
2022/03/31 05:32:46;;;;;;;;;;;15.30;99.90;;;;;;6246666;23;20312;-73
2022/03/31 05:35:13;;;;;;;;;;;15.20;99.90;;;;;;6246806;23;20313;-72
2022/03/31 05:37:39;;;;;;;;;;;15.20;99.90;;;;;;6246845;23;19904;-74
2022/03/31 05:40:06;;;;;;;;;;;15.30;99.90;;;;;;6247157;23;19916;-73
2022/03/31 05:42:33;;;;;;;;;;;15.40;99.90;;;;;;6245854;23;19910;-72
2022/03/31 05:44:59;;;;;;;;;;;15.40;99.90;;;;;;6245895;23;19915;-73
2022/03/31 05:47:25;;;;;;;;;;;15.40;99.90;;;;;;6246445;23;19903;-73
2022/03/31 05:49:51;;;;;;;;;;;15.50;99.90;;;;;;6245342;23;19911;-73
2022/03/31 05:52:17;;;;;;;;;;;15.60;99.90;;;;;;6245395;23;19915;-72
2022/03/31 05:54:43;;;;;;;;;;;15.80;99.90;;;;;;6245022;23;19931;-73
2022/03/31 05:57:09;;;;;;;;;;;16.00;99.90;;;;;;6245555;23;19903;-73
2022/03/31 05:59:35;;;;;;;;;;;16.40;99.90;;;;;;6246403;23;19908;-74
2022/03/31 06:02:01;;;;;;;;;;;16.70;99.90;;;;;;6245500;23;19982;-74
2022/03/31 06:04:28;;;;;;;;;;;16.80;99.90;;;;;;6244753;23;19923;-74
2022/03/31 06:06:54;;;;;;;;;;;16.90;99.90;;;;;;6244336;23;19904;-74
2022/03/31 06:09:20;;;;;;;;;;;16.90;99.90;;;;;;6245726;23;19981;-73
2022/03/31 06:11:46;;;;;;;;;;;16.90;99.90;;;;;;6218367;23;19926;-74
2022/03/31 06:14:15;;;;;;;;;;;16.40;99.90;;;;;;6246110;23;19907;-72
2022/03/31 06:16:41;;;;;;;;;;;16.00;99.90;;;;;;6244817;23;19910;-74
2022/03/31 06:19:10;;;;;;;;;;;15.80;99.90;;;;;;6245936;23;20213;-72
2022/03/31 06:21:36;;;;;;;;;;;15.80;99.90;;;;;;6246353;23;20309;-74
2022/03/31 06:24:03;;;;;;;;;;;15.60;99.90;;;;;;6246262;23;19953;-72
2022/03/31 06:26:29;;;;;;;;;;;15.60;99.90;;;;;;6246449;23;19904;-72
2022/03/31 06:28:55;;;;;;;;;;;15.60;99.90;;;;;;6245353;23;19978;-74
2022/03/31 06:31:24;;;;;;;;;;;15.50;99.90;;;;;;6245820;23;19915;-74
2022/03/31 06:33:50;;;;;;;;;;;15.50;99.90;;;;;;6245670;23;19903;-74
2022/03/31 06:36:16;;;;;;;;;;;15.50;99.90;;;;;;6245190;23;20078;-71
2022/03/31 06:38:42;;;;;;;;;;;15.40;99.90;;;;;;6245355;23;19903;-72
2022/03/31 06:41:10;;;;;;;;;;;15.40;99.90;;;;;;6244643;23;19922;-72
2022/03/31 06:43:40;;;;;;;;;;;15.30;99.90;;;;;;6245112;23;19903;-72
2022/03/31 06:46:06;;;;;;;;;;;15.10;99.90;;;;;;6244744;23;19975;-72
2022/03/31 06:48:33;;;;;;;;;;;15.00;99.90;;;;;;6245377;23;19979;-71
2022/03/31 06:50:59;;;;;;;;;;;15.10;99.90;;;;;;6245079;23;19972;-71
2022/03/31 06:53:28;;;;;;;;;;;15.00;99.90;;;;;;6244661;23;20387;-72
2022/03/31 06:55:54;;;;;;;;;;;14.90;99.90;;;;;;6244182;23;19904;-71
2022/03/31 06:58:25;;;;;;;;;;;14.70;99.90;;;;;;6244301;23;20214;-71
2022/03/31 07:01:09;;;;;;;;;;;14.70;99.90;;;;;;6244516;23;19912;-70
2022/03/31 07:03:35;;;;;;;;;;;14.90;99.90;;;;;;6244963;23;19982;-70
2022/03/31 07:06:01;;;;;;;;;;;14.90;99.90;;;;;;6244364;23;19904;-69
2022/03/31 07:08:27;;;;;;;;;;;14.80;99.90;;;;;;6244391;23;20267;-68
2022/03/31 07:10:53;;;;;;;;;;;14.70;99.90;;;;;;6244602;23;19950;-67
2022/03/31 07:13:19;;;;;;;;;;;14.70;99.90;;;;;;6244757;23;19904;-69
2022/03/31 07:15:45;;;;;;;;;;;14.70;99.90;;;;;;6244984;23;20359;-69
2022/03/31 07:18:11;;;;;;;;;;;14.70;99.90;;;;;;6245201;23;19923;-71
2022/03/31 07:20:37;;;;;;;;;;;14.90;99.90;;;;;;6245607;23;19927;-71
2022/03/31 07:23:03;;;;;;;;;;;15.10;99.90;;;;;;6245762;23;19904;-70
2022/03/31 07:25:29;;;;;;;;;;;15.20;99.90;;;;;;6245381;23;19984;-71
2022/03/31 07:27:55;;;;;;;;;;;15.40;99.90;;;;;;6245776;23;20163;-68
2022/03/31 07:30:22;;;;;;;;;;;15.70;99.90;;;;;;6244987;23;20045;-69
2022/03/31 07:32:48;;;;;;;;;;;16.20;99.90;;;;;;6245079;23;19926;-69
2022/03/31 07:35:13;;;;;;;;;;;16.90;99.90;;;;;;6244564;23;20262;-69
2022/03/31 07:37:39;;;;;;;;;;;17.40;99.90;;;;;;6244930;23;20308;-69
2022/03/31 07:40:05;;;;;;;;;;;17.80;99.90;;;;;;6244774;23;19926;-67
2022/03/31 07:42:31;;;;;;;;;;;17.80;99.90;;;;;;6244976;23;19903;-69
2022/03/31 07:44:57;;;;;;;;;;;17.90;99.90;;;;;;6245751;23;19908;-69
2022/03/31 07:47:23;;;;;;;;;;;18.10;99.90;;;;;;6245216;23;19904;-69
2022/03/31 07:49:49;;;;;;;;;;;18.30;99.90;;;;;;6244087;23;20208;-69
2022/03/31 07:52:15;;;;;;;;;;;18.70;99.90;;;;;;6244138;23;19903;-69
2022/03/31 07:54:42;;;;;;;;;;;19.30;99.90;;;;;;6244178;23;20224;-68
2022/03/31 07:57:08;;;;;;;;;;;19.10;99.90;;;;;;6243764;23;19925;-70
2022/03/31 07:59:34;;;;;;;;;;;18.70;99.90;;;;;;6243951;23;20285;-69
2022/03/31 08:02:00;;;;;;;;;;;18.70;99.90;;;;;;6243504;23;19918;-70
2022/03/31 08:04:27;;;;;;;;;;;18.60;99.90;;;;;;6217254;23;19908;-70
2022/03/31 08:06:53;;;;;;;;;;;18.50;99.90;;;;;;6244113;23;19989;-69
2022/03/31 08:09:21;;;;;;;;;;;18.30;99.90;;;;;;6243889;23;19912;-69
2022/03/31 08:11:49;;;;;;;;;;;18.10;99.90;;;;;;6243397;23;19915;-67
2022/03/31 08:14:16;;;;;;;;;;;18.20;99.90;;;;;;6244507;23;19903;-69
2022/03/31 08:16:46;;;;;;;;;;;18.50;99.90;;;;;;6246411;23;19965;-69
2022/03/31 08:19:13;;;;;;;;;;;18.80;99.90;;;;;;6246184;23;19916;-69
2022/03/31 08:21:39;;;;;;;;;;;19.20;99.90;;;;;;6246785;23;19992;-69
2022/03/31 08:24:09;;;;;;;;;;;19.50;99.90;;;;;;6245574;23;20498;-69
2022/03/31 08:26:37;;;;;;;;;;;19.90;99.90;;;;;;6246831;23;20023;-70
2022/03/31 08:29:04;;;;;;;;;;;20.40;99.90;;;;;;6246771;23;19904;-70
2022/03/31 08:31:30;;;;;;;;;;;20.80;99.90;;;;;;6246533;23;19952;-69
2022/03/31 08:33:56;;;;;;;;;;;20.90;99.90;;;;;;6246747;23;19954;-69
2022/03/31 08:36:21;;;;;;;;;;;20.90;99.90;;;;;;6246379;23;19910;-69
2022/03/31 08:38:47;;;;;;;;;;;21.50;99.90;;;;;;6246230;23;20243;-70
2022/03/31 08:41:13;;;;;;;;;;;21.70;99.90;;;;;;6246520;23;20273;-70
2022/03/31 08:43:41;;;;;;;;;;;21.50;99.90;;;;;;6246195;23;20379;-69
2022/03/31 08:46:08;;;;;;;;;;;21.50;99.90;;;;;;6246374;23;19908;-68
2022/03/31 08:48:34;;;;;;;;;;;20.90;99.90;;;;;;6245856;23;19903;-69
2022/03/31 08:51:00;;;;;;;;;;;20.50;99.90;;;;;;6245584;23;19911;-70
2022/03/31 08:53:25;;;;;;;;;;;20.40;99.90;;;;;;6246387;23;20220;-70
2022/03/31 08:55:51;;;;;;;;;;;20.50;99.90;;;;;;6245066;23;20259;-70
2022/03/31 08:58:17;;;;;;;;;;;20.10;99.90;;;;;;6218053;23;19961;-68
2022/03/31 09:00:43;;;;;;;;;;;20.00;99.90;;;;;;6218685;23;20004;-69
2022/03/31 09:03:10;;;;;;;;;;;19.90;99.90;;;;;;6246026;23;19907;-68
2022/03/31 09:05:49;;;;;;;;;;;19.80;99.90;;;;;;6245700;23;19930;-69
2022/03/31 09:08:16;;;;;;;;;;;19.60;99.90;;;;;;6244829;23;20313;-67
2022/03/31 09:10:47;;;;;;;;;;;19.60;99.90;;;;;;6246213;23;19978;-69
2022/03/31 09:13:23;;;;;;;;;;;19.70;99.90;;;;;;6245649;23;19972;-69
2022/03/31 09:15:50;;;;;;;;;;;19.70;99.90;;;;;;6245505;23;20339;-68
2022/03/31 09:18:20;;;;;;;;;;;19.60;99.90;;;;;;6244924;23;19986;-70
2022/03/31 09:20:48;;;;;;;;;;;19.20;99.90;;;;;;6245287;23;19961;-68
2022/03/31 09:23:16;;;;;;;;;;;19.10;99.90;;;;;;6245907;23;19988;-68
2022/03/31 09:25:42;;;;;;;;;;;19.00;99.90;;;;;;6245302;23;19904;-69
2022/03/31 09:28:12;;;;;;;;;;;19.10;99.90;;;;;;6246004;23;20247;-69
2022/03/31 09:30:52;;;;;;;;;;;18.70;99.90;;;;;;6246106;23;19907;-70
2022/03/31 09:33:34;;;;;;;;;;;18.70;99.90;;;;;;6245657;23;19904;-69
2022/03/31 09:36:00;;;;;;;;;;;18.90;99.90;;;;;;6245409;23;19904;-69
2022/03/31 09:38:26;;;;;;;;;;;19.10;99.90;;;;;;6245673;23;19979;-70
2022/03/31 09:40:53;;;;;;;;;;;19.10;99.90;;;;;;6245736;23;19961;-69
2022/03/31 09:43:19;;;;;;;;;;;19.40;99.90;;;;;;6245676;23;19965;-69
2022/03/31 09:45:45;;;;;;;;;;;19.50;99.90;;;;;;6245685;23;19931;-69
2022/03/31 09:48:21;;;;;;;;;;;19.70;99.90;;;;;;6245677;23;20197;-70
2022/03/31 09:50:47;;;;;;;;;;;20.10;99.90;;;;;;6245601;23;19908;-68
2022/03/31 09:53:13;;;;;;;;;;;19.90;99.90;;;;;;6245140;23;19904;-68
2022/03/31 09:55:41;;;;;;;;;;;20.00;99.90;;;;;;6244774;23;19904;-70
2022/03/31 09:58:08;;;;;;;;;;;20.30;99.90;;;;;;6244830;23;20014;-70
2022/03/31 10:00:34;;;;;;;;;;;20.20;99.90;;;;;;6244934;23;20014;-69
2022/03/31 10:03:00;;;;;;;;;;;20.40;99.90;;;;;;6243949;23;20326;-68
2022/03/31 10:05:27;;;;;;;;;;;20.60;99.90;;;;;;6244374;23;19932;-68
2022/03/31 10:07:54;;;;;;;;;;;20.40;99.90;;;;;;6244029;23;19930;-68
2022/03/31 10:10:20;;;;;;;;;;;20.60;99.90;;;;;;6243808;23;19957;-68
2022/03/31 10:12:48;;;;;;;;;;;20.60;99.90;;;;;;6243918;23;19908;-69
2022/03/31 10:15:26;;;;;;;;;;;20.50;99.90;;;;;;6244945;23;20305;-70
2022/03/31 10:17:52;;;;;;;;;;;20.20;99.90;;;;;;6244500;23;19915;-70
2022/03/31 10:20:21;;;;;;;;;;;20.20;99.90;;;;;;6243916;23;20194;-71
2022/03/31 10:25:41;;;;;;;;;;;20.50;99.90;;;;;;6244837;23;19911;-68
2022/03/31 10:28:33;;;;;;;;;;;20.70;99.90;;;;;;6245133;23;20214;-67
2022/03/31 10:31:01;;;;;;;;;;;20.90;99.90;;;;;;6238223;23;19904;-70
2022/03/31 10:33:42;;;;;;;;;;;20.80;99.90;;;;;;6245394;23;19911;-69
2022/03/31 10:36:12;;;;;;;;;;;20.80;99.90;;;;;;6245774;23;19908;-69
2022/03/31 10:38:39;;;;;;;;;;;20.30;99.90;;;;;;6245122;23;19935;-70
2022/03/31 10:41:08;;;;;;;;;;;20.30;99.90;;;;;;6244908;23;19966;-70
2022/03/31 10:43:37;;;;;;;;;;;20.50;99.90;;;;;;6245008;23;19903;-69
2022/03/31 10:46:13;;;;;;;;;;;20.80;99.90;;;;;;6244604;23;19908;-70
2022/03/31 10:48:38;;;;;;;;;;;20.80;99.90;;;;;;6218504;23;19939;-69
2022/03/31 10:51:06;;;;;;;;;;;20.80;99.90;;;;;;6244695;23;19903;-69
2022/03/31 10:53:33;;;;;;;;;;;21.00;99.90;;;;;;6245374;23;19903;-70
2022/03/31 10:55:59;;;;;;;;;;;20.90;99.90;;;;;;6217312;23;20401;-69
2022/03/31 10:58:28;;;;;;;;;;;20.80;99.90;;;;;;6244565;23;20309;-71
2022/03/31 11:01:01;;;;;;;;;;;21.00;99.90;;;;;;6243923;23;19940;-70
2022/03/31 11:03:27;;;;;;;;;;;21.20;99.90;;;;;;6244235;23;19904;-70
2022/03/31 11:05:56;;;;;;;;;;;21.40;99.90;;;;;;6244111;23;19942;-70
2022/03/31 11:08:21;;;;;;;;;;;21.10;99.90;;;;;;6244385;23;19907;-69
2022/03/31 11:10:49;;;;;;;;;;;21.10;99.90;;;;;;6244620;23;20309;-69
2022/03/31 11:13:16;;;;;;;;;;;21.00;99.90;;;;;;6244020;23;19995;-69
2022/03/31 11:15:46;;;;;;;;;;;20.90;99.90;;;;;;6217185;23;19962;-69
2022/03/31 11:18:12;;;;;;;;;;;21.30;99.90;;;;;;6244971;23;20340;-69
2022/03/31 11:20:37;;;;;;;;;;;22.00;99.90;;;;;;6245844;23;19922;-68
2022/03/31 11:23:06;;;;;;;;;;;22.50;99.90;;;;;;6245627;23;19904;-69
2022/03/31 11:25:32;;;;;;;;;;;22.80;99.90;;;;;;6245277;23;19904;-67
2022/03/31 11:28:07;;;;;;;;;;;23.20;99.90;;;;;;6244756;23;19904;-70
2022/03/31 11:30:33;;;;;;;;;;;23.40;99.90;;;;;;6245499;23;19958;-70
2022/03/31 11:33:00;;;;;;;;;;;23.30;99.90;;;;;;6244951;23;19904;-70
2022/03/31 11:35:27;;;;;;;;;;;23.40;99.90;;;;;;6244711;23;20081;-70
2022/03/31 11:37:57;;;;;;;;;;;23.40;99.90;;;;;;6244936;23;19961;-70
2022/03/31 11:40:33;;;;;;;;;;;23.20;99.90;;;;;;6244924;23;20210;-69
2022/03/31 11:43:01;;;;;;;;;;;23.10;99.90;;;;;;6246338;23;19914;-70
2022/03/31 11:45:27;;;;;;;;;;;23.20;99.90;;;;;;6245220;23;19981;-70
2022/03/31 11:48:05;;;;;;;;;;;23.40;99.90;;;;;;6245187;23;20264;-69
2022/03/31 11:50:32;;;;;;;;;;;23.00;99.90;;;;;;6246324;23;19903;-71
2022/03/31 11:52:58;;;;;;;;;;;22.70;99.90;;;;;;6246307;23;20321;-68
2022/03/31 11:55:24;;;;;;;;;;;22.40;99.90;;;;;;6246942;23;20280;-70
2022/03/31 11:57:51;;;;;;;;;;;22.50;99.90;;;;;;6219142;23;19948;-67
2022/03/31 12:00:17;;;;;;;;;;;22.40;99.90;;;;;;6246575;23;19922;-70
2022/03/31 12:02:53;;;;;;;;;;;22.40;99.90;;;;;;6246439;23;19962;-70
2022/03/31 12:05:19;;;;;;;;;;;22.60;99.90;;;;;;6247651;23;20186;-70
2022/03/31 12:07:46;;;;;;;;;;;22.60;99.90;;;;;;6247784;23;19904;-71
2022/03/31 12:10:12;;;;;;;;;;;22.80;99.90;;;;;;6247418;23;19915;-70
2022/03/31 12:12:45;;;;;;;;;;;22.70;99.90;;;;;;6247889;23;19907;-70
2022/03/31 12:15:17;;;;;;;;;;;22.70;99.90;;;;;;6247515;23;19986;-70
2022/03/31 12:17:43;;;;;;;;;;;22.80;99.90;;;;;;6247803;23;19977;-70
2022/03/31 12:20:13;;;;;;;;;;;22.90;99.90;;;;;;6248639;23;19912;-69
2022/03/31 12:22:39;;;;;;;;;;;22.70;99.90;;;;;;6248102;23;19908;-69
2022/03/31 12:25:07;;;;;;;;;;;22.30;99.90;;;;;;6248759;23;20427;-70
2022/03/31 12:27:35;;;;;;;;;;;22.20;99.90;;;;;;6248211;23;19904;-70
2022/03/31 12:30:03;;;;;;;;;;;22.50;99.90;;;;;;6221025;23;19904;-69
2022/03/31 12:32:30;;;;;;;;;;;22.70;99.90;;;;;;6247829;23;19939;-68
2022/03/31 12:35:01;;;;;;;;;;;22.30;99.90;;;;;;6247841;23;19903;-69
2022/03/31 12:37:28;;;;;;;;;;;22.30;99.90;;;;;;6248438;23;19971;-70
2022/03/31 12:39:54;;;;;;;;;;;22.30;99.90;;;;;;6247494;23;19911;-69
2022/03/31 12:42:20;;;;;;;;;;;22.40;99.90;;;;;;6247999;23;19903;-69
2022/03/31 12:44:49;;;;;;;;;;;22.40;99.90;;;;;;6247675;23;20238;-68
2022/03/31 12:47:18;;;;;;;;;;;22.30;99.90;;;;;;6248114;23;19904;-69
2022/03/31 12:49:44;;;;;;;;;;;22.40;99.90;;;;;;6220011;23;20228;-69
2022/03/31 12:52:20;;;;;;;;;;;22.40;99.90;;;;;;6247612;23;19903;-70
2022/03/31 12:54:50;;;;;;;;;;;22.40;99.90;;;;;;6247209;23;19904;-70
2022/03/31 12:57:26;;;;;;;;;;;22.30;99.90;;;;;;6247980;23;20362;-70
2022/03/31 12:59:58;;;;;;;;;;;22.00;99.90;;;;;;6247224;23;20212;-67
2022/03/31 13:02:33;;;;;;;;;;;22.10;99.90;;;;;;6247273;23;20347;-69
2022/03/31 13:04:59;;;;;;;;;;;22.10;99.90;;;;;;6247711;23;19935;-70
2022/03/31 13:07:28;;;;;;;;;;;22.00;99.90;;;;;;6247130;23;19904;-71
2022/03/31 13:09:58;;;;;;;;;;;22.00;99.90;;;;;;6247188;23;20294;-70
2022/03/31 13:12:25;;;;;;;;;;;22.00;99.90;;;;;;6247701;23;19904;-70
2022/03/31 13:14:51;;;;;;;;;;;22.10;99.90;;;;;;6247409;23;19904;-70
2022/03/31 13:17:18;;;;;;;;;;;22.00;99.90;;;;;;6247272;23;20250;-70
2022/03/31 13:19:44;;;;;;;;;;;22.30;99.90;;;;;;6247162;23;19907;-70
2022/03/31 13:22:11;;;;;;;;;;;22.30;99.90;;;;;;6247651;23;19907;-70
2022/03/31 13:24:37;;;;;;;;;;;22.00;99.90;;;;;;6247482;23;19908;-69
2022/03/31 13:27:04;;;;;;;;;;;22.10;99.90;;;;;;6247486;23;19903;-69
2022/03/31 13:29:30;;;;;;;;;;;22.10;99.90;;;;;;6247663;23;20301;-70
2022/03/31 13:31:57;;;;;;;;;;;22.00;99.90;;;;;;6247512;23;20267;-69
2022/03/31 13:34:30;;;;;;;;;;;22.10;99.90;;;;;;6247301;23;19962;-69
2022/03/31 13:36:59;;;;;;;;;;;21.90;99.90;;;;;;6247781;23;19949;-70
2022/03/31 13:39:25;;;;;;;;;;;21.50;99.90;;;;;;6247310;23;19978;-71
2022/03/31 13:41:51;;;;;;;;;;;21.70;99.90;;;;;;6247257;23;19994;-70
2022/03/31 13:44:17;;;;;;;;;;;21.80;99.90;;;;;;6247020;23;20368;-70
2022/03/31 13:46:46;;;;;;;;;;;21.60;99.90;;;;;;6247107;23;19927;-71
2022/03/31 13:49:13;;;;;;;;;;;21.70;99.90;;;;;;6247122;23;20305;-70
2022/03/31 13:51:40;;;;;;;;;;;21.60;99.90;;;;;;6246140;23;19907;-71
2022/03/31 13:54:06;;;;;;;;;;;21.80;99.90;;;;;;6246285;23;19911;-68
2022/03/31 13:56:36;;;;;;;;;;;22.00;99.90;;;;;;6246140;23;19908;-71
2022/03/31 14:01:49;;;;;;;;;;;22.00;99.90;;;;;;6246216;23;19977;-71
2022/03/31 14:04:15;;;;;;;;;;;22.10;99.90;;;;;;6246344;23;19904;-71
2022/03/31 14:06:41;;;;;;;;;;;22.20;99.90;;;;;;6246142;23;19978;-70
2022/03/31 14:09:07;;;;;;;;;;;22.30;99.90;;;;;;6247170;23;19957;-70
2022/03/31 14:11:34;;;;;;;;;;;22.30;99.90;;;;;;6246050;23;19908;-70
2022/03/31 14:14:00;;;;;;;;;;;22.40;99.90;;;;;;6245802;23;19908;-71
2022/03/31 14:16:28;;;;;;;;;;;22.20;99.90;;;;;;6246084;23;19904;-70
2022/03/31 14:18:54;;;;;;;;;;;22.20;99.90;;;;;;6246092;23;19998;-70
2022/03/31 14:21:21;;;;;;;;;;;22.20;99.90;;;;;;6246694;23;19912;-70
2022/03/31 14:23:47;;;;;;;;;;;21.90;99.90;;;;;;6246149;23;19935;-70